Strona główna
METAR-TAF:

METAR-TAF

Lotnisko :

Port lotniczy Buri Ram

Buri Ram, Tajlandia

Szerokość geograficzna: 15-13-46N, Długość geograficzna: 103-15-04E, wysokość: 180 m

Aktualna obserwacja pogody

Raport powstał 21 minut temu, godzina 05:00 UTC
Wiatr 14 kt od północny wschód, zmienny między północ i wschód
Temperatura 23°C
Wilgotność 44%
Ciśnienie 1019 hPa
Widzialność: 9000 m

METAR: VTUO 070500Z 05014KT 010V100 9000 NSC 23/10 Q1019 NOSIG

czas: 12:21 (05:21 UTC)

Prognoza

Raport powstał 6 godziny i 21 minut temu, godzina 23:00 UTC
Prognoza ważna od 07 godzina 00 UTC do 07 godzina 24 UTC
Wiatr 12 kt od północny wschód
Widzialność: 9000 m
Mało chmury na wysokości 3500 ft

TAF: VTUO 062300Z 0700/0724 04012KT 9000 FEW035

Obserwacja i prognoza pogody dla ponad 4000 lotnisk (raport METAR i TAF).

Dostępne stacje oznaczono żółtymi i czerwonymi punktami na mapie.

Najedź kursorem aby zobaczyć nazwę stacji.

Kliknij aby zobaczyć obserwacje i prognozy pogody.

Aby zmienić mapę: kliknij na zielony przycisk z czarnym krzyżykiem, aby powiększyć; na zielony przycisk z myślnikiem, aby pomniejszyć; na zielone strzałki, aby przejść do map sąsiednich.


METAR-TAF: